sensor_id;sensor_type;location;lat;lon;timestamp;P1;durP1;ratioP1;P2;durP2;ratioP2
31910;SDS011;18457;52.432;16.914;2022-07-04T00:00:41;10.80;;;6.20;;
31910;SDS011;18457;52.432;16.914;2022-07-04T00:03:13;7.20;;;5.60;;
31910;SDS011;18457;52.432;16.914;2022-07-04T00:05:45;6.40;;;5.60;;
31910;SDS011;18457;52.432;16.914;2022-07-04T00:08:18;6.30;;;5.60;;
31910;SDS011;18457;52.432;16.914;2022-07-04T00:10:50;7.60;;;5.60;;
31910;SDS011;18457;52.432;16.914;2022-07-04T00:13:22;6.60;;;5.60;;
31910;SDS011;18457;52.432;16.914;2022-07-04T00:15:54;9.80;;;6.10;;
31910;SDS011;18457;52.432;16.914;2022-07-04T00:18:26;6.60;;;5.50;;
31910;SDS011;18457;52.432;16.914;2022-07-04T00:20:57;9.20;;;5.60;;
31910;SDS011;18457;52.432;16.914;2022-07-04T00:23:29;5.70;;;4.90;;
31910;SDS011;18457;52.432;16.914;2022-07-04T00:26:01;6.20;;;5.60;;
31910;SDS011;18457;52.432;16.914;2022-07-04T00:28:33;7.10;;;5.50;;
31910;SDS011;18457;52.432;16.914;2022-07-04T00:31:05;6.80;;;5.90;;
31910;SDS011;18457;52.432;16.914;2022-07-04T00:33:37;8.00;;;5.40;;
31910;SDS011;18457;52.432;16.914;2022-07-04T00:36:09;6.90;;;6.10;;
31910;SDS011;18457;52.432;16.914;2022-07-04T00:38:42;6.20;;;5.40;;
31910;SDS011;18457;52.432;16.914;2022-07-04T00:41:14;9.90;;;6.90;;
31910;SDS011;18457;52.432;16.914;2022-07-04T00:46:40;7.80;;;6.30;;
31910;SDS011;18457;52.432;16.914;2022-07-04T00:49:14;9.80;;;6.60;;
31910;SDS011;18457;52.432;16.914;2022-07-04T00:51:47;6.80;;;5.50;;
31910;SDS011;18457;52.432;16.914;2022-07-04T00:54:19;10.20;;;5.60;;
31910;SDS011;18457;52.432;16.914;2022-07-04T00:56:55;6.40;;;5.20;;
31910;SDS011;18457;52.432;16.914;2022-07-04T00:59:28;7.40;;;5.80;;
31910;SDS011;18457;52.432;16.914;2022-07-04T01:02:00;7.80;;;5.50;;
31910;SDS011;18457;52.432;16.914;2022-07-04T01:04:32;8.80;;;5.80;;
31910;SDS011;18457;52.432;16.914;2022-07-04T01:07:05;6.70;;;5.60;;
31910;SDS011;18457;52.432;16.914;2022-07-04T01:09:41;6.70;;;6.10;;
31910;SDS011;18457;52.432;16.914;2022-07-04T01:12:24;8.70;;;6.30;;
31910;SDS011;18457;52.432;16.914;2022-07-04T01:14:57;11.20;;;6.20;;
31910;SDS011;18457;52.432;16.914;2022-07-04T01:17:29;6.10;;;5.50;;
31910;SDS011;18457;52.432;16.914;2022-07-04T01:20:01;9.30;;;5.70;;
31910;SDS011;18457;52.432;16.914;2022-07-04T01:22:34;7.30;;;5.70;;
31910;SDS011;18457;52.432;16.914;2022-07-04T01:25:08;6.40;;;5.50;;
31910;SDS011;18457;52.432;16.914;2022-07-04T01:27:40;9.10;;;6.50;;
31910;SDS011;18457;52.432;16.914;2022-07-04T01:30:12;8.70;;;6.20;;
31910;SDS011;18457;52.432;16.914;2022-07-04T01:32:44;10.40;;;6.60;;
31910;SDS011;18457;52.432;16.914;2022-07-04T01:35:17;6.80;;;6.10;;
31910;SDS011;18457;52.432;16.914;2022-07-04T01:37:49;10.20;;;6.40;;
31910;SDS011;18457;52.432;16.914;2022-07-04T01:40:21;10.70;;;6.50;;
31910;SDS011;18457;52.432;16.914;2022-07-04T01:42:54;9.30;;;6.40;;
31910;SDS011;18457;52.432;16.914;2022-07-04T01:45:27;6.60;;;5.90;;
31910;SDS011;18457;52.432;16.914;2022-07-04T01:48:02;8.50;;;6.40;;
31910;SDS011;18457;52.432;16.914;2022-07-04T01:50:35;8.60;;;6.80;;
31910;SDS011;18457;52.432;16.914;2022-07-04T01:53:07;7.10;;;6.40;;
31910;SDS011;18457;52.432;16.914;2022-07-04T01:55:40;9.00;;;6.30;;
31910;SDS011;18457;52.432;16.914;2022-07-04T01:58:11;9.80;;;6.70;;
31910;SDS011;18457;52.432;16.914;2022-07-04T02:00:44;13.40;;;7.80;;
31910;SDS011;18457;52.432;16.914;2022-07-04T02:03:33;7.90;;;6.10;;
31910;SDS011;18457;52.432;16.914;2022-07-04T02:06:07;6.90;;;6.30;;
31910;SDS011;18457;52.432;16.914;2022-07-04T02:08:39;9.40;;;6.20;;
31910;SDS011;18457;52.432;16.914;2022-07-04T02:11:28;6.90;;;6.20;;
31910;SDS011;18457;52.432;16.914;2022-07-04T02:14:22;13.10;;;7.00;;
31910;SDS011;18457;52.432;16.914;2022-07-04T02:16:54;7.50;;;6.70;;
31910;SDS011;18457;52.432;16.914;2022-07-04T02:19:26;7.70;;;6.90;;
31910;SDS011;18457;52.432;16.914;2022-07-04T02:21:59;9.60;;;6.80;;
31910;SDS011;18457;52.432;16.914;2022-07-04T02:24:31;7.90;;;6.90;;
31910;SDS011;18457;52.432;16.914;2022-07-04T02:27:03;13.80;;;6.70;;
31910;SDS011;18457;52.432;16.914;2022-07-04T02:29:35;8.60;;;6.50;;
31910;SDS011;18457;52.432;16.914;2022-07-04T02:32:08;9.60;;;6.70;;
31910;SDS011;18457;52.432;16.914;2022-07-04T02:37:11;8.80;;;6.80;;
31910;SDS011;18457;52.432;16.914;2022-07-04T02:39:43;14.00;;;7.00;;
31910;SDS011;18457;52.432;16.914;2022-07-04T02:42:16;7.30;;;6.60;;
31910;SDS011;18457;52.432;16.914;2022-07-04T02:44:49;10.40;;;6.80;;
31910;SDS011;18457;52.432;16.914;2022-07-04T02:47:21;6.80;;;6.10;;
31910;SDS011;18457;52.432;16.914;2022-07-04T02:49:54;8.30;;;7.00;;
31910;SDS011;18457;52.432;16.914;2022-07-04T02:52:26;8.60;;;6.90;;
31910;SDS011;18457;52.432;16.914;2022-07-04T02:54:58;7.50;;;6.80;;
31910;SDS011;18457;52.432;16.914;2022-07-04T03:00:01;8.10;;;7.40;;
31910;SDS011;18457;52.432;16.914;2022-07-04T03:02:33;10.30;;;7.60;;
31910;SDS011;18457;52.432;16.914;2022-07-04T03:05:06;10.40;;;8.40;;
31910;SDS011;18457;52.432;16.914;2022-07-04T03:07:39;13.00;;;8.00;;
31910;SDS011;18457;52.432;16.914;2022-07-04T03:10:11;10.00;;;7.80;;
31910;SDS011;18457;52.432;16.914;2022-07-04T03:12:43;11.60;;;7.80;;
31910;SDS011;18457;52.432;16.914;2022-07-04T03:17:46;11.30;;;7.10;;
31910;SDS011;18457;52.432;16.914;2022-07-04T03:20:18;16.20;;;8.00;;
31910;SDS011;18457;52.432;16.914;2022-07-04T03:22:50;18.80;;;8.50;;
31910;SDS011;18457;52.432;16.914;2022-07-04T03:25:23;13.80;;;8.60;;
31910;SDS011;18457;52.432;16.914;2022-07-04T03:27:55;8.80;;;7.40;;
31910;SDS011;18457;52.432;16.914;2022-07-04T03:30:27;10.20;;;7.50;;
31910;SDS011;18457;52.432;16.914;2022-07-04T03:33:00;14.90;;;7.30;;
31910;SDS011;18457;52.432;16.914;2022-07-04T03:35:32;9.30;;;7.70;;
31910;SDS011;18457;52.432;16.914;2022-07-04T03:38:04;12.80;;;8.00;;
31910;SDS011;18457;52.432;16.914;2022-07-04T03:40:36;10.40;;;7.70;;
31910;SDS011;18457;52.432;16.914;2022-07-04T03:43:09;9.50;;;7.90;;
31910;SDS011;18457;52.432;16.914;2022-07-04T03:45:41;16.50;;;8.50;;
31910;SDS011;18457;52.432;16.914;2022-07-04T03:48:13;12.10;;;8.00;;
31910;SDS011;18457;52.432;16.914;2022-07-04T03:50:45;14.90;;;8.20;;
31910;SDS011;18457;52.432;16.914;2022-07-04T03:53:17;16.50;;;7.40;;
31910;SDS011;18457;52.432;16.914;2022-07-04T03:55:49;13.40;;;7.20;;
31910;SDS011;18457;52.432;16.914;2022-07-04T03:58:21;9.00;;;7.10;;
31910;SDS011;18457;52.432;16.914;2022-07-04T04:00:53;8.90;;;7.80;;
31910;SDS011;18457;52.432;16.914;2022-07-04T04:03:27;25.50;;;8.10;;
31910;SDS011;18457;52.432;16.914;2022-07-04T04:06:16;8.80;;;7.30;;
31910;SDS011;18457;52.432;16.914;2022-07-04T04:08:49;9.00;;;7.40;;
31910;SDS011;18457;52.432;16.914;2022-07-04T04:11:21;8.10;;;7.30;;
31910;SDS011;18457;52.432;16.914;2022-07-04T04:13:53;14.00;;;7.00;;
31910;SDS011;18457;52.432;16.914;2022-07-04T04:18:56;8.70;;;7.00;;
31910;SDS011;18457;52.432;16.914;2022-07-04T04:21:28;8.40;;;7.20;;
31910;SDS011;18457;52.432;16.914;2022-07-04T04:24:00;9.20;;;7.10;;
31910;SDS011;18457;52.432;16.914;2022-07-04T04:26:32;7.60;;;6.80;;
31910;SDS011;18457;52.432;16.914;2022-07-04T04:29:04;10.00;;;7.30;;
31910;SDS011;18457;52.432;16.914;2022-07-04T04:31:36;17.40;;;7.80;;
31910;SDS011;18457;52.432;16.914;2022-07-04T04:34:07;8.70;;;7.80;;
31910;SDS011;18457;52.432;16.914;2022-07-04T04:36:39;10.00;;;6.40;;
31910;SDS011;18457;52.432;16.914;2022-07-04T04:39:11;10.40;;;7.40;;
31910;SDS011;18457;52.432;16.914;2022-07-04T04:41:43;13.10;;;6.80;;
31910;SDS011;18457;52.432;16.914;2022-07-04T04:44:15;10.70;;;7.00;;
31910;SDS011;18457;52.432;16.914;2022-07-04T04:46:48;11.60;;;6.60;;
31910;SDS011;18457;52.432;16.914;2022-07-04T04:49:20;10.30;;;6.90;;
31910;SDS011;18457;52.432;16.914;2022-07-04T04:51:52;11.80;;;6.80;;
31910;SDS011;18457;52.432;16.914;2022-07-04T04:54:24;9.40;;;7.40;;
31910;SDS011;18457;52.432;16.914;2022-07-04T04:56:56;13.60;;;7.00;;
31910;SDS011;18457;52.432;16.914;2022-07-04T04:59:28;8.90;;;7.70;;
31910;SDS011;18457;52.432;16.914;2022-07-04T05:02:00;9.10;;;6.80;;
31910;SDS011;18457;52.432;16.914;2022-07-04T05:04:32;10.80;;;6.80;;
31910;SDS011;18457;52.432;16.914;2022-07-04T05:07:04;12.60;;;6.70;;
31910;SDS011;18457;52.432;16.914;2022-07-04T05:09:36;11.00;;;6.80;;
31910;SDS011;18457;52.432;16.914;2022-07-04T05:12:08;11.90;;;7.40;;
31910;SDS011;18457;52.432;16.914;2022-07-04T05:14:41;13.70;;;7.80;;
31910;SDS011;18457;52.432;16.914;2022-07-04T05:19:44;10.50;;;6.90;;
31910;SDS011;18457;52.432;16.914;2022-07-04T05:22:17;12.80;;;7.10;;
31910;SDS011;18457;52.432;16.914;2022-07-04T05:24:49;7.20;;;6.40;;
31910;SDS011;18457;52.432;16.914;2022-07-04T05:27:21;9.50;;;7.40;;
31910;SDS011;18457;52.432;16.914;2022-07-04T05:29:52;17.50;;;7.30;;
31910;SDS011;18457;52.432;16.914;2022-07-04T05:32:24;9.40;;;6.80;;
31910;SDS011;18457;52.432;16.914;2022-07-04T05:34:56;9.70;;;7.50;;
31910;SDS011;18457;52.432;16.914;2022-07-04T05:37:28;12.30;;;7.30;;
31910;SDS011;18457;52.432;16.914;2022-07-04T05:40:00;16.10;;;7.30;;
31910;SDS011;18457;52.432;16.914;2022-07-04T05:42:32;12.00;;;7.40;;
31910;SDS011;18457;52.432;16.914;2022-07-04T05:45:06;15.70;;;8.10;;
31910;SDS011;18457;52.432;16.914;2022-07-04T05:47:39;12.50;;;7.60;;
31910;SDS011;18457;52.432;16.914;2022-07-04T05:50:11;13.30;;;7.60;;
31910;SDS011;18457;52.432;16.914;2022-07-04T05:52:43;26.70;;;8.40;;
31910;SDS011;18457;52.432;16.914;2022-07-04T05:55:15;13.70;;;7.30;;
31910;SDS011;18457;52.432;16.914;2022-07-04T05:57:47;11.40;;;6.90;;
31910;SDS011;18457;52.432;16.914;2022-07-04T06:00:19;9.40;;;6.50;;
31910;SDS011;18457;52.432;16.914;2022-07-04T06:02:51;11.10;;;7.70;;
31910;SDS011;18457;52.432;16.914;2022-07-04T06:05:23;9.00;;;7.10;;
31910;SDS011;18457;52.432;16.914;2022-07-04T06:07:55;10.60;;;7.20;;
31910;SDS011;18457;52.432;16.914;2022-07-04T06:10:28;8.70;;;7.10;;
31910;SDS011;18457;52.432;16.914;2022-07-04T06:13:02;13.70;;;6.80;;
31910;SDS011;18457;52.432;16.914;2022-07-04T06:15:38;8.50;;;7.20;;
31910;SDS011;18457;52.432;16.914;2022-07-04T06:18:10;12.70;;;7.10;;
31910;SDS011;18457;52.432;16.914;2022-07-04T06:20:42;19.40;;;7.40;;
31910;SDS011;18457;52.432;16.914;2022-07-04T06:23:14;10.70;;;7.60;;
31910;SDS011;18457;52.432;16.914;2022-07-04T06:25:46;10.90;;;7.90;;
31910;SDS011;18457;52.432;16.914;2022-07-04T06:28:18;12.50;;;6.90;;
31910;SDS011;18457;52.432;16.914;2022-07-04T06:31:09;41.70;;;9.50;;
31910;SDS011;18457;52.432;16.914;2022-07-04T06:33:42;15.00;;;7.50;;
31910;SDS011;18457;52.432;16.914;2022-07-04T06:36:28;11.50;;;6.90;;
31910;SDS011;18457;52.432;16.914;2022-07-04T06:39:00;12.30;;;6.90;;
31910;SDS011;18457;52.432;16.914;2022-07-04T06:41:32;10.00;;;7.70;;
31910;SDS011;18457;52.432;16.914;2022-07-04T06:44:04;13.70;;;8.20;;
31910;SDS011;18457;52.432;16.914;2022-07-04T06:46:41;11.20;;;8.00;;
31910;SDS011;18457;52.432;16.914;2022-07-04T06:49:15;12.50;;;7.90;;
31910;SDS011;18457;52.432;16.914;2022-07-04T06:51:47;7.90;;;7.10;;
31910;SDS011;18457;52.432;16.914;2022-07-04T06:54:19;20.20;;;8.00;;
31910;SDS011;18457;52.432;16.914;2022-07-04T06:56:51;8.60;;;7.00;;
31910;SDS011;18457;52.432;16.914;2022-07-04T06:59:42;11.60;;;7.10;;
31910;SDS011;18457;52.432;16.914;2022-07-04T07:02:15;11.00;;;7.30;;
31910;SDS011;18457;52.432;16.914;2022-07-04T07:04:47;10.30;;;7.10;;
31910;SDS011;18457;52.432;16.914;2022-07-04T07:07:19;12.40;;;8.60;;
31910;SDS011;18457;52.432;16.914;2022-07-04T07:09:51;23.50;;;7.80;;
31910;SDS011;18457;52.432;16.914;2022-07-04T07:12:24;12.30;;;6.80;;
31910;SDS011;18457;52.432;16.914;2022-07-04T07:14:56;8.70;;;7.50;;
31910;SDS011;18457;52.432;16.914;2022-07-04T07:17:28;10.90;;;7.40;;
31910;SDS011;18457;52.432;16.914;2022-07-04T07:19:59;9.10;;;7.40;;
31910;SDS011;18457;52.432;16.914;2022-07-04T07:22:31;9.20;;;7.00;;
31910;SDS011;18457;52.432;16.914;2022-07-04T07:25:10;9.30;;;7.50;;
31910;SDS011;18457;52.432;16.914;2022-07-04T07:30:13;11.30;;;7.50;;
31910;SDS011;18457;52.432;16.914;2022-07-04T07:35:15;9.20;;;7.40;;
31910;SDS011;18457;52.432;16.914;2022-07-04T07:37:47;8.30;;;6.50;;
31910;SDS011;18457;52.432;16.914;2022-07-04T07:40:19;11.10;;;6.30;;
31910;SDS011;18457;52.432;16.914;2022-07-04T07:42:51;8.80;;;6.90;;
31910;SDS011;18457;52.432;16.914;2022-07-04T07:45:24;11.80;;;7.00;;
31910;SDS011;18457;52.432;16.914;2022-07-04T07:47:57;8.80;;;6.20;;
31910;SDS011;18457;52.432;16.914;2022-07-04T07:50:29;12.90;;;6.60;;
31910;SDS011;18457;52.432;16.914;2022-07-04T07:53:02;7.40;;;5.80;;
31910;SDS011;18457;52.432;16.914;2022-07-04T07:55:34;10.00;;;6.20;;
31910;SDS011;18457;52.432;16.914;2022-07-04T07:58:06;9.00;;;6.30;;
31910;SDS011;18457;52.432;16.914;2022-07-04T08:00:38;9.30;;;6.30;;
31910;SDS011;18457;52.432;16.914;2022-07-04T08:03:25;6.60;;;6.00;;
31910;SDS011;18457;52.432;16.914;2022-07-04T08:06:15;10.30;;;6.80;;
31910;SDS011;18457;52.432;16.914;2022-07-04T08:08:47;9.10;;;6.50;;
31910;SDS011;18457;52.432;16.914;2022-07-04T08:11:19;5.90;;;5.40;;
31910;SDS011;18457;52.432;16.914;2022-07-04T08:13:51;5.90;;;5.10;;
31910;SDS011;18457;52.432;16.914;2022-07-04T08:16:23;5.80;;;5.10;;
31910;SDS011;18457;52.432;16.914;2022-07-04T08:19:15;10.10;;;5.90;;
31910;SDS011;18457;52.432;16.914;2022-07-04T08:21:47;9.50;;;5.10;;
31910;SDS011;18457;52.432;16.914;2022-07-04T08:24:39;6.50;;;5.90;;
31910;SDS011;18457;52.432;16.914;2022-07-04T08:27:12;5.80;;;5.20;;
31910;SDS011;18457;52.432;16.914;2022-07-04T08:32:15;7.10;;;4.90;;
31910;SDS011;18457;52.432;16.914;2022-07-04T08:34:47;7.60;;;5.50;;
31910;SDS011;18457;52.432;16.914;2022-07-04T08:37:19;7.40;;;4.90;;
31910;SDS011;18457;52.432;16.914;2022-07-04T08:39:52;6.30;;;5.40;;
31910;SDS011;18457;52.432;16.914;2022-07-04T08:42:24;12.00;;;4.90;;
31910;SDS011;18457;52.432;16.914;2022-07-04T08:45:02;8.40;;;5.60;;
31910;SDS011;18457;52.432;16.914;2022-07-04T08:47:36;15.00;;;6.60;;
31910;SDS011;18457;52.432;16.914;2022-07-04T08:50:11;6.70;;;5.40;;
31910;SDS011;18457;52.432;16.914;2022-07-04T08:52:51;6.00;;;5.10;;
31910;SDS011;18457;52.432;16.914;2022-07-04T08:55:28;8.80;;;5.00;;
31910;SDS011;18457;52.432;16.914;2022-07-04T08:58:18;8.90;;;5.10;;
31910;SDS011;18457;52.432;16.914;2022-07-04T09:00:59;48.30;;;7.30;;
31910;SDS011;18457;52.432;16.914;2022-07-04T09:03:32;25.30;;;5.50;;
31910;SDS011;18457;52.432;16.914;2022-07-04T09:06:05;6.20;;;5.00;;
31910;SDS011;18457;52.432;16.914;2022-07-04T09:08:37;5.40;;;4.90;;
31910;SDS011;18457;52.432;16.914;2022-07-04T09:11:09;7.40;;;4.90;;
31910;SDS011;18457;52.432;16.914;2022-07-04T09:13:41;8.20;;;5.80;;
31910;SDS011;18457;52.432;16.914;2022-07-04T09:16:14;24.40;;;6.50;;
31910;SDS011;18457;52.432;16.914;2022-07-04T09:18:46;10.00;;;5.40;;
31910;SDS011;18457;52.432;16.914;2022-07-04T09:21:19;7.70;;;5.80;;
31910;SDS011;18457;52.432;16.914;2022-07-04T09:23:54;6.40;;;5.30;;
31910;SDS011;18457;52.432;16.914;2022-07-04T09:26:27;6.40;;;4.70;;
31910;SDS011;18457;52.432;16.914;2022-07-04T09:28:59;8.70;;;5.20;;
31910;SDS011;18457;52.432;16.914;2022-07-04T09:31:31;8.20;;;4.80;;
31910;SDS011;18457;52.432;16.914;2022-07-04T09:34:04;9.00;;;5.70;;
31910;SDS011;18457;52.432;16.914;2022-07-04T09:36:40;5.20;;;4.80;;
31910;SDS011;18457;52.432;16.914;2022-07-04T09:39:14;17.30;;;5.60;;
31910;SDS011;18457;52.432;16.914;2022-07-04T09:41:53;11.80;;;5.70;;
31910;SDS011;18457;52.432;16.914;2022-07-04T09:44:27;7.50;;;5.30;;
31910;SDS011;18457;52.432;16.914;2022-07-04T09:47:21;6.00;;;4.90;;
31910;SDS011;18457;52.432;16.914;2022-07-04T09:50:01;10.10;;;5.00;;
31910;SDS011;18457;52.432;16.914;2022-07-04T09:52:45;6.20;;;5.10;;
31910;SDS011;18457;52.432;16.914;2022-07-04T09:55:22;7.20;;;5.00;;
31910;SDS011;18457;52.432;16.914;2022-07-04T09:57:56;7.00;;;5.70;;
31910;SDS011;18457;52.432;16.914;2022-07-04T10:00:30;13.70;;;5.70;;
31910;SDS011;18457;52.432;16.914;2022-07-04T10:03:16;6.70;;;6.00;;
31910;SDS011;18457;52.432;16.914;2022-07-04T10:06:02;8.60;;;5.00;;
31910;SDS011;18457;52.432;16.914;2022-07-04T10:08:35;5.90;;;5.40;;
31910;SDS011;18457;52.432;16.914;2022-07-04T10:13:45;6.00;;;5.10;;
31910;SDS011;18457;52.432;16.914;2022-07-04T10:16:18;7.60;;;5.00;;
31910;SDS011;18457;52.432;16.914;2022-07-04T10:18:50;7.30;;;4.70;;
31910;SDS011;18457;52.432;16.914;2022-07-04T10:21:24;5.70;;;5.10;;
31910;SDS011;18457;52.432;16.914;2022-07-04T10:23:56;5.50;;;4.80;;
31910;SDS011;18457;52.432;16.914;2022-07-04T10:29:00;5.40;;;4.90;;
31910;SDS011;18457;52.432;16.914;2022-07-04T10:31:31;5.40;;;3.90;;
31910;SDS011;18457;52.432;16.914;2022-07-04T10:34:05;4.10;;;3.70;;
31910;SDS011;18457;52.432;16.914;2022-07-04T10:36:37;6.10;;;4.60;;
31910;SDS011;18457;52.432;16.914;2022-07-04T10:39:09;4.70;;;4.30;;
31910;SDS011;18457;52.432;16.914;2022-07-04T10:41:59;5.20;;;4.50;;
31910;SDS011;18457;52.432;16.914;2022-07-04T10:44:32;6.20;;;4.40;;
31910;SDS011;18457;52.432;16.914;2022-07-04T10:47:06;6.30;;;5.10;;
31910;SDS011;18457;52.432;16.914;2022-07-04T10:49:57;11.20;;;6.80;;
31910;SDS011;18457;52.432;16.914;2022-07-04T10:52:29;5.50;;;5.00;;
31910;SDS011;18457;52.432;16.914;2022-07-04T10:55:01;6.10;;;4.50;;
31910;SDS011;18457;52.432;16.914;2022-07-04T10:57:42;5.20;;;4.30;;
31910;SDS011;18457;52.432;16.914;2022-07-04T11:00:14;5.10;;;4.60;;
31910;SDS011;18457;52.432;16.914;2022-07-04T11:05:24;7.60;;;4.40;;
31910;SDS011;18457;52.432;16.914;2022-07-04T11:08:02;5.00;;;4.60;;
31910;SDS011;18457;52.432;16.914;2022-07-04T11:10:37;5.60;;;5.10;;
31910;SDS011;18457;52.432;16.914;2022-07-04T11:13:18;8.50;;;5.00;;
31910;SDS011;18457;52.432;16.914;2022-07-04T11:16:03;5.80;;;4.90;;
31910;SDS011;18457;52.432;16.914;2022-07-04T11:18:43;6.20;;;5.60;;
31910;SDS011;18457;52.432;16.914;2022-07-04T11:21:16;5.00;;;4.40;;
31910;SDS011;18457;52.432;16.914;2022-07-04T11:23:50;6.60;;;5.40;;
31910;SDS011;18457;52.432;16.914;2022-07-04T11:26:23;5.30;;;4.90;;
31910;SDS011;18457;52.432;16.914;2022-07-04T11:28:55;8.70;;;5.60;;
31910;SDS011;18457;52.432;16.914;2022-07-04T11:31:37;6.30;;;4.40;;
31910;SDS011;18457;52.432;16.914;2022-07-04T11:34:10;5.80;;;4.90;;
31910;SDS011;18457;52.432;16.914;2022-07-04T11:36:42;8.30;;;5.00;;
31910;SDS011;18457;52.432;16.914;2022-07-04T11:39:17;7.20;;;5.20;;
31910;SDS011;18457;52.432;16.914;2022-07-04T11:41:51;6.10;;;5.20;;
31910;SDS011;18457;52.432;16.914;2022-07-04T11:44:44;6.20;;;5.40;;
31910;SDS011;18457;52.432;16.914;2022-07-04T11:47:35;8.80;;;5.40;;
31910;SDS011;18457;52.432;16.914;2022-07-04T11:50:09;7.50;;;5.00;;
31910;SDS011;18457;52.432;16.914;2022-07-04T11:52:44;10.10;;;5.20;;
31910;SDS011;18457;52.432;16.914;2022-07-04T11:55:37;5.50;;;5.00;;
31910;SDS011;18457;52.432;16.914;2022-07-04T11:58:21;6.80;;;4.50;;
31910;SDS011;18457;52.432;16.914;2022-07-04T12:00:53;6.60;;;5.00;;
31910;SDS011;18457;52.432;16.914;2022-07-04T12:03:25;10.00;;;4.70;;
31910;SDS011;18457;52.432;16.914;2022-07-04T12:06:01;13.40;;;4.70;;
31910;SDS011;18457;52.432;16.914;2022-07-04T12:08:34;6.40;;;5.30;;
31910;SDS011;18457;52.432;16.914;2022-07-04T12:11:06;5.30;;;4.70;;
31910;SDS011;18457;52.432;16.914;2022-07-04T12:13:38;7.30;;;5.10;;
31910;SDS011;18457;52.432;16.914;2022-07-04T12:16:12;5.50;;;4.90;;
31910;SDS011;18457;52.432;16.914;2022-07-04T12:18:45;4.60;;;4.10;;
31910;SDS011;18457;52.432;16.914;2022-07-04T12:21:17;4.40;;;4.10;;
31910;SDS011;18457;52.432;16.914;2022-07-04T12:23:52;9.10;;;4.80;;
31910;SDS011;18457;52.432;16.914;2022-07-04T12:26:33;5.80;;;5.10;;
31910;SDS011;18457;52.432;16.914;2022-07-04T12:29:21;8.00;;;6.00;;
31910;SDS011;18457;52.432;16.914;2022-07-04T12:31:59;6.20;;;5.70;;
31910;SDS011;18457;52.432;16.914;2022-07-04T12:34:31;7.40;;;6.40;;
31910;SDS011;18457;52.432;16.914;2022-07-04T12:37:07;9.40;;;6.30;;
31910;SDS011;18457;52.432;16.914;2022-07-04T12:39:41;8.20;;;5.50;;
31910;SDS011;18457;52.432;16.914;2022-07-04T12:42:15;6.60;;;6.10;;
31910;SDS011;18457;52.432;16.914;2022-07-04T12:44:49;7.70;;;7.00;;
31910;SDS011;18457;52.432;16.914;2022-07-04T12:50:12;11.20;;;6.90;;
31910;SDS011;18457;52.432;16.914;2022-07-04T12:52:44;9.50;;;7.80;;
31910;SDS011;18457;52.432;16.914;2022-07-04T12:55:18;9.00;;;8.10;;
31910;SDS011;18457;52.432;16.914;2022-07-04T12:57:50;10.20;;;7.40;;
31910;SDS011;18457;52.432;16.914;2022-07-04T13:00:22;8.80;;;7.50;;
31910;SDS011;18457;52.432;16.914;2022-07-04T13:05:35;8.40;;;7.70;;
31910;SDS011;18457;52.432;16.914;2022-07-04T13:08:07;8.70;;;7.40;;
31910;SDS011;18457;52.432;16.914;2022-07-04T13:10:41;8.80;;;7.90;;
31910;SDS011;18457;52.432;16.914;2022-07-04T13:13:12;7.20;;;6.60;;
31910;SDS011;18457;52.432;16.914;2022-07-04T13:15:44;7.10;;;6.50;;
31910;SDS011;18457;52.432;16.914;2022-07-04T13:18:16;9.70;;;6.80;;
31910;SDS011;18457;52.432;16.914;2022-07-04T13:20:48;6.80;;;6.20;;
31910;SDS011;18457;52.432;16.914;2022-07-04T13:23:20;8.40;;;6.00;;
31910;SDS011;18457;52.432;16.914;2022-07-04T13:25:53;6.90;;;5.60;;
31910;SDS011;18457;52.432;16.914;2022-07-04T13:28:25;6.00;;;5.50;;
31910;SDS011;18457;52.432;16.914;2022-07-04T13:30:57;6.30;;;5.70;;
31910;SDS011;18457;52.432;16.914;2022-07-04T13:35:59;10.90;;;5.80;;
31910;SDS011;18457;52.432;16.914;2022-07-04T13:38:31;6.40;;;5.80;;
31910;SDS011;18457;52.432;16.914;2022-07-04T13:41:03;7.20;;;5.90;;
31910;SDS011;18457;52.432;16.914;2022-07-04T13:43:35;6.70;;;6.10;;
31910;SDS011;18457;52.432;16.914;2022-07-04T13:46:07;8.30;;;6.30;;
31910;SDS011;18457;52.432;16.914;2022-07-04T13:48:39;6.30;;;5.70;;
31910;SDS011;18457;52.432;16.914;2022-07-04T13:51:11;7.70;;;6.10;;
31910;SDS011;18457;52.432;16.914;2022-07-04T13:53:43;6.50;;;5.90;;
31910;SDS011;18457;52.432;16.914;2022-07-04T13:56:15;6.40;;;5.50;;
31910;SDS011;18457;52.432;16.914;2022-07-04T13:58:47;7.40;;;5.80;;
31910;SDS011;18457;52.432;16.914;2022-07-04T14:01:20;7.60;;;6.20;;
31910;SDS011;18457;52.432;16.914;2022-07-04T14:03:52;8.30;;;5.60;;
31910;SDS011;18457;52.432;16.914;2022-07-04T14:06:25;6.90;;;6.30;;
31910;SDS011;18457;52.432;16.914;2022-07-04T14:08:57;6.50;;;6.00;;
31910;SDS011;18457;52.432;16.914;2022-07-04T14:11:29;6.80;;;5.40;;
31910;SDS011;18457;52.432;16.914;2022-07-04T14:14:01;8.90;;;5.50;;
31910;SDS011;18457;52.432;16.914;2022-07-04T14:16:33;7.50;;;5.40;;
31910;SDS011;18457;52.432;16.914;2022-07-04T14:19:05;6.50;;;5.70;;
31910;SDS011;18457;52.432;16.914;2022-07-04T14:21:39;6.50;;;5.70;;
31910;SDS011;18457;52.432;16.914;2022-07-04T14:24:11;6.90;;;5.40;;
31910;SDS011;18457;52.432;16.914;2022-07-04T14:26:43;8.10;;;5.70;;
31910;SDS011;18457;52.432;16.914;2022-07-04T14:31:46;6.70;;;5.80;;
31910;SDS011;18457;52.432;16.914;2022-07-04T14:34:21;6.90;;;5.50;;
31910;SDS011;18457;52.432;16.914;2022-07-04T14:36:53;5.90;;;5.40;;
31910;SDS011;18457;52.432;16.914;2022-07-04T14:39:25;6.40;;;5.80;;
31910;SDS011;18457;52.432;16.914;2022-07-04T14:41:57;6.40;;;5.40;;
31910;SDS011;18457;52.432;16.914;2022-07-04T14:44:29;5.40;;;4.90;;
31910;SDS011;18457;52.432;16.914;2022-07-04T14:47:04;31.40;;;5.90;;
31910;SDS011;18457;52.432;16.914;2022-07-04T14:49:40;7.60;;;4.80;;
31910;SDS011;18457;52.432;16.914;2022-07-04T14:52:13;4.80;;;4.40;;
31910;SDS011;18457;52.432;16.914;2022-07-04T14:54:45;4.80;;;4.40;;
31910;SDS011;18457;52.432;16.914;2022-07-04T14:57:17;4.70;;;4.30;;
31910;SDS011;18457;52.432;16.914;2022-07-04T14:59:49;7.30;;;4.70;;
31910;SDS011;18457;52.432;16.914;2022-07-04T15:04:51;6.10;;;4.40;;
31910;SDS011;18457;52.432;16.914;2022-07-04T15:07:23;5.10;;;4.40;;
31910;SDS011;18457;52.432;16.914;2022-07-04T15:09:55;6.90;;;4.40;;
31910;SDS011;18457;52.432;16.914;2022-07-04T15:12:27;4.80;;;4.30;;
31910;SDS011;18457;52.432;16.914;2022-07-04T15:17:29;6.20;;;4.30;;
31910;SDS011;18457;52.432;16.914;2022-07-04T15:22:49;4.10;;;3.80;;
31910;SDS011;18457;52.432;16.914;2022-07-04T15:25:40;7.70;;;4.60;;
31910;SDS011;18457;52.432;16.914;2022-07-04T15:30:43;6.90;;;4.20;;
31910;SDS011;18457;52.432;16.914;2022-07-04T15:33:16;4.70;;;4.30;;
31910;SDS011;18457;52.432;16.914;2022-07-04T15:35:48;6.40;;;4.00;;
31910;SDS011;18457;52.432;16.914;2022-07-04T15:38:23;19.90;;;4.30;;
31910;SDS011;18457;52.432;16.914;2022-07-04T15:40:55;5.50;;;4.50;;
31910;SDS011;18457;52.432;16.914;2022-07-04T15:43:28;4.50;;;4.20;;
31910;SDS011;18457;52.432;16.914;2022-07-04T15:46:00;4.60;;;4.20;;
31910;SDS011;18457;52.432;16.914;2022-07-04T15:51:03;5.70;;;4.00;;
31910;SDS011;18457;52.432;16.914;2022-07-04T15:53:35;5.30;;;4.30;;
31910;SDS011;18457;52.432;16.914;2022-07-04T15:56:07;4.80;;;3.40;;
31910;SDS011;18457;52.432;16.914;2022-07-04T15:58:39;10.10;;;3.50;;
31910;SDS011;18457;52.432;16.914;2022-07-04T16:01:11;4.10;;;3.70;;
31910;SDS011;18457;52.432;16.914;2022-07-04T16:03:43;4.10;;;3.70;;